Time;durP1;ratioP1;P1;durP2;ratioP2;P2;SDS_P1;SDS_P2;PMS_P1;PMS_P2;Temp;Humidity;BMP_temperature;BMP_pressure;BME280_temperature;BME280_humidity;BME280_pressure;Samples;Min_cycle;Max_cycle;Signal;HPM_P1;HPM_P2
2023/05/01 00:00:25;;;;;;;3.38;2.40;;;;;;;19.77;49.38;100503.69;5095314;28;20113;-65
2023/05/01 00:02:53;;;;;;;3.20;2.05;;;;;;;19.75;49.07;100503.00;5095224;28;20098;-65
2023/05/01 00:05:21;;;;;;;4.13;2.40;;;;;;;19.74;49.28;100501.28;5095066;28;20101;-65
2023/05/01 00:07:50;;;;;;;3.53;2.20;;;;;;;19.73;49.28;100505.00;5094985;28;20048;-65
2023/05/01 00:10:19;;;;;;;3.03;2.17;;;;;;;19.72;49.30;100495.16;5094835;28;20075;-64
2023/05/01 00:12:48;;;;;;;3.03;2.05;;;;;;;19.71;49.13;100493.47;5094810;28;20052;-65
2023/05/01 00:15:17;;;;;;;3.50;2.20;;;;;;;19.70;49.10;100491.75;5094823;28;20048;-64
2023/05/01 00:17:45;;;;;;;3.85;2.42;;;;;;;19.68;49.08;100494.59;5094943;28;20048;-65
2023/05/01 00:20:13;;;;;;;3.38;2.30;;;;;;;19.68;49.17;100491.03;5094650;28;20065;-64
2023/05/01 00:22:42;;;;;;;4.03;2.40;;;;;;;19.66;49.24;100493.03;5094585;28;20485;-64
2023/05/01 00:25:10;;;;;;;3.20;2.25;;;;;;;19.64;49.10;100490.47;5093587;28;20408;-63
2023/05/01 00:27:38;;;;;;;3.40;2.10;;;;;;;19.64;49.57;100492.31;5094650;28;20055;-65
2023/05/01 00:30:09;;;;;;;3.80;2.40;;;;;;;19.62;49.27;100483.50;5094635;28;20071;-64
2023/05/01 00:32:37;;;;;;;3.38;2.10;;;;;;;19.61;49.53;100487.22;5094517;28;20075;-64
2023/05/01 00:35:06;;;;;;;3.60;2.22;;;;;;;19.59;49.28;100487.38;5094461;28;20044;-63
2023/05/01 00:37:34;;;;;;;3.33;2.03;;;;;;;19.58;49.16;100485.63;5094469;28;20048;-63
2023/05/01 00:40:04;;;;;;;3.50;2.20;;;;;;;19.57;49.44;100486.63;5094334;28;20046;-63
2023/05/01 00:42:35;;;;;;;3.63;2.08;;;;;;;19.55;49.54;100483.19;5094418;28;20044;-64
2023/05/01 00:45:03;;;;;;;3.30;2.05;;;;;;;19.55;49.48;100487.75;5094306;28;20044;-63
2023/05/01 00:47:35;;;;;;;4.35;2.28;;;;;;;19.53;49.08;100487.03;5094140;28;20060;-63
2023/05/01 00:50:04;;;;;;;3.20;2.35;;;;;;;19.52;49.08;100482.63;5094191;28;20048;-64
2023/05/01 00:52:33;;;;;;;3.20;2.15;;;;;;;19.51;49.30;100486.34;5094051;28;20125;-63
2023/05/01 00:55:01;;;;;;;3.20;2.20;;;;;;;19.48;49.16;100481.19;5094101;28;20055;-63
2023/05/01 00:57:29;;;;;;;3.83;2.40;;;;;;;19.50;49.28;100481.94;5093709;28;20070;-64
2023/05/01 00:59:58;;;;;;;3.38;2.10;;;;;;;19.46;49.42;100481.34;5093912;28;20066;-65
2023/05/01 01:02:26;;;;;;;3.55;2.17;;;;;;;19.45;49.20;100487.75;5093830;28;20415;-65
2023/05/01 01:04:56;;;;;;;4.05;2.30;;;;;;;19.44;49.05;100492.31;5093818;28;20052;-65
2023/05/01 01:07:32;;;;;;;3.50;2.17;;;;;;;19.43;49.47;100489.75;5093860;28;20048;-63
2023/05/01 01:10:11;;;;;;;3.28;2.15;;;;;;;19.41;49.05;100487.19;5093841;28;20044;-65
2023/05/01 01:12:49;;;;;;;3.55;2.25;;;;;;;19.41;48.96;100491.75;5093725;28;20056;-65
2023/05/01 01:15:23;;;;;;;3.90;2.33;;;;;;;19.39;49.32;100488.31;5093494;28;20086;-65
2023/05/01 01:17:57;;;;;;;3.22;2.10;;;;;;;19.38;49.23;100498.28;5093789;28;20048;-65
2023/05/01 01:20:40;;;;;;;3.10;2.00;;;;;;;19.37;49.08;100495.72;5093593;28;20043;-65
2023/05/01 01:23:33;;;;;;;3.67;2.10;;;;;;;19.36;49.34;100496.72;5093588;28;20047;-65
2023/05/01 01:26:12;;;;;;;3.93;2.20;;;;;;;19.35;49.33;100495.88;5093351;28;20070;-65
2023/05/01 01:29:10;;;;;;;4.47;2.17;;;;;;;19.33;49.03;100495.16;5093456;28;20063;-64
2023/05/01 01:31:53;;;;;;;3.42;2.20;;;;;;;19.32;49.23;100496.16;5093444;28;20458;-65
2023/05/01 01:34:27;;;;;;;3.08;1.92;;;;;;;19.31;48.92;100486.34;5093140;28;20048;-65
2023/05/01 01:37:01;;;;;;;3.33;2.00;;;;;;;19.29;49.15;100488.31;5093157;28;20097;-65
2023/05/01 01:39:45;;;;;;;4.22;2.20;;;;;;;19.28;48.83;100491.16;5093339;28;20132;-65
2023/05/01 01:42:19;;;;;;;3.00;2.00;;;;;;;19.27;49.32;100489.47;5093028;28;20496;-65
2023/05/01 01:44:51;;;;;;;2.92;2.10;;;;;;;19.26;49.04;100493.16;5092929;28;20659;-65
2023/05/01 01:47:21;;;;;;;3.08;2.00;;;;;;;19.25;48.77;100491.47;5092840;28;20489;-63
2023/05/01 01:49:53;;;;;;;4.53;2.58;;;;;;;19.23;48.87;100494.31;5093052;28;20048;-64
2023/05/01 01:52:24;;;;;;;3.75;2.00;;;;;;;19.22;48.87;100492.63;5093071;28;20048;-63
2023/05/01 01:54:57;;;;;;;3.55;2.15;;;;;;;19.21;49.34;100495.47;5092894;28;20093;-64
2023/05/01 01:57:26;;;;;;;3.70;2.30;;;;;;;19.20;49.13;100493.72;5092878;28;20055;-65
2023/05/01 01:59:55;;;;;;;3.15;2.22;;;;;;;19.18;49.28;100496.56;5092686;28;20763;-64
2023/05/01 02:02:26;;;;;;;3.15;2.20;;;;;;;19.17;49.15;100497.56;5092814;28;20044;-64
2023/05/01 02:04:58;;;;;;;3.60;2.10;;;;;;;19.16;48.94;100496.72;5092734;28;20455;-63
2023/05/01 02:07:29;;;;;;;3.92;2.20;;;;;;;19.14;48.89;100495.16;5092715;28;20044;-64
2023/05/01 02:09:59;;;;;;;4.63;2.50;;;;;;;19.14;49.08;100497.88;5092013;28;20044;-66
2023/05/01 02:12:27;;;;;;;3.42;2.30;;;;;;;19.11;49.19;100496.31;5092740;28;20201;-65
2023/05/01 02:14:57;;;;;;;3.97;2.47;;;;;;;19.11;49.28;100488.19;5092681;28;20455;-65
2023/05/01 02:17:27;;;;;;;3.70;2.30;;;;;;;19.10;49.31;100493.72;5092489;28;20044;-65
2023/05/01 02:19:59;;;;;;;3.25;2.20;;;;;;;19.09;49.10;100489.31;5092429;28;20072;-65
2023/05/01 02:22:28;;;;;;;3.65;2.20;;;;;;;19.07;49.07;100486.75;5092182;28;20088;-65
2023/05/01 02:24:58;;;;;;;4.35;2.63;;;;;;;19.07;49.18;100489.47;5092459;28;20047;-64
2023/05/01 02:27:31;;;;;;;4.05;2.50;;;;;;;19.07;48.91;100488.59;5092402;28;20123;-65
2023/05/01 02:30:00;;;;;;;3.67;2.22;;;;;;;19.05;49.26;100487.91;5093982;28;20463;-63
2023/05/01 02:32:28;;;;;;;4.55;2.60;;;;;;;19.06;49.15;100489.59;5092205;28;20112;-63
2023/05/01 02:34:58;;;;;;;3.72;2.42;;;;;;;19.03;48.95;100488.03;5092031;28;20048;-63
2023/05/01 02:37:29;;;;;;;3.88;2.60;;;;;;;19.03;49.17;100492.59;5092352;28;20044;-63
2023/05/01 02:39:58;;;;;;;3.60;2.35;;;;;;;19.01;49.11;100495.44;5092138;28;20688;-64
2023/05/01 02:42:28;;;;;;;3.72;2.55;;;;;;;19.00;49.14;100499.13;5091976;28;20492;-64
2023/05/01 02:44:59;;;;;;;3.47;2.42;;;;;;;18.99;49.16;100496.56;5091964;28;20545;-65
2023/05/01 02:47:30;;;;;;;4.63;2.55;;;;;;;18.99;49.28;100497.41;5092031;28;20087;-64
2023/05/01 02:50:02;;;;;;;4.30;2.60;;;;;;;18.98;49.02;100494.84;5092085;28;20095;-64
2023/05/01 02:52:31;;;;;;;3.80;2.50;;;;;;;18.96;49.15;100491.44;5092106;28;20044;-65
2023/05/01 02:55:01;;;;;;;3.50;2.40;;;;;;;18.96;49.02;100497.69;5091977;28;20440;-64
2023/05/01 02:57:29;;;;;;;3.65;2.40;;;;;;;18.96;49.20;100497.69;5091892;28;20100;-64
2023/05/01 02:59:57;;;;;;;3.20;2.22;;;;;;;18.94;49.11;100497.00;5091789;28;20048;-64
2023/05/01 03:02:25;;;;;;;4.30;2.60;;;;;;;18.94;49.38;100504.25;5092017;28;20138;-64
2023/05/01 03:04:53;;;;;;;3.70;2.30;;;;;;;18.93;49.19;100506.09;5091733;28;20637;-64
2023/05/01 03:07:23;;;;;;;4.13;2.55;;;;;;;18.92;49.29;100500.84;5091868;28;20084;-64
2023/05/01 03:09:51;;;;;;;3.10;2.25;;;;;;;18.91;49.27;100509.91;5091869;28;20054;-64
2023/05/01 03:12:20;;;;;;;3.90;2.40;;;;;;;18.91;48.99;100507.22;5091765;28;20052;-65
2023/05/01 03:14:48;;;;;;;3.30;2.40;;;;;;;18.89;49.50;100499.25;5091690;28;20469;-64
2023/05/01 03:17:16;;;;;;;3.67;2.38;;;;;;;18.89;49.08;100507.34;5091765;28;20044;-64
2023/05/01 03:19:45;;;;;;;3.78;2.58;;;;;;;18.87;49.33;100504.78;5091743;28;20044;-64
2023/05/01 03:22:13;;;;;;;3.70;2.55;;;;;;;18.87;49.15;100504.78;5095223;28;20052;-64
2023/05/01 03:24:46;;;;;;;4.32;2.47;;;;;;;18.86;49.28;100504.94;5095703;28;20389;-64
2023/05/01 03:27:14;;;;;;;4.18;2.33;;;;;;;18.86;49.50;100513.91;5095629;28;20048;-64
2023/05/01 03:29:42;;;;;;;4.22;2.33;;;;;;;18.84;49.29;100510.50;5095860;28;20093;-64
2023/05/01 03:32:11;;;;;;;4.10;2.50;;;;;;;18.85;49.23;100512.19;5095777;28;20083;-64
2023/05/01 03:34:39;;;;;;;4.30;2.58;;;;;;;18.84;49.29;100515.03;5095752;28;20048;-64
2023/05/01 03:37:07;;;;;;;3.83;2.63;;;;;;;18.83;49.42;100522.28;5095779;28;20067;-64
2023/05/01 03:39:35;;;;;;;4.20;2.53;;;;;;;18.82;49.46;100523.28;5095450;28;20632;-64
2023/05/01 03:42:05;;;;;;;4.10;2.78;;;;;;;18.81;49.47;100524.25;5095622;28;20048;-64
2023/05/01 03:44:34;;;;;;;3.83;2.50;;;;;;;18.80;49.57;100521.69;5095517;28;20097;-64
2023/05/01 03:47:02;;;;;;;3.72;2.50;;;;;;;18.80;49.48;100519.00;5095323;28;20052;-64
2023/05/01 03:49:30;;;;;;;3.95;2.67;;;;;;;18.80;49.18;100519.00;5095855;28;20055;-64
2023/05/01 03:51:58;;;;;;;4.10;2.53;;;;;;;18.79;49.12;100517.28;5095237;28;20047;-64
2023/05/01 03:54:26;;;;;;;4.35;2.58;;;;;;;18.78;49.12;100515.59;5095350;28;20121;-64
2023/05/01 03:56:55;;;;;;;3.42;2.30;;;;;;;18.77;49.23;100525.53;5095297;28;20048;-64
2023/05/01 03:59:25;;;;;;;3.55;2.22;;;;;;;18.77;49.57;100524.69;5095270;28;20048;-64
2023/05/01 04:01:53;;;;;;;4.38;2.42;;;;;;;18.75;49.33;100514.03;5095215;28;20044;-64
2023/05/01 04:04:21;;;;;;;4.20;2.55;;;;;;;18.76;49.14;100523.84;5095032;28;20055;-65
2023/05/01 04:06:50;;;;;;;4.28;2.53;;;;;;;18.75;49.53;100527.53;5094944;28;20048;-63
2023/05/01 04:09:19;;;;;;;4.72;2.90;;;;;;;18.74;49.29;100515.03;5094778;28;20492;-64
2023/05/01 04:11:47;;;;;;;4.03;2.55;;;;;;;18.73;49.56;100521.41;5095055;28;20048;-64
2023/05/01 04:14:15;;;;;;;3.55;2.25;;;;;;;18.73;49.60;100529.53;5094877;28;20039;-64
2023/05/01 04:16:44;;;;;;;3.60;2.60;;;;;;;18.73;49.22;100518.72;5094842;28;20501;-65
2023/05/01 04:19:13;;;;;;;3.70;2.40;;;;;;;18.73;49.45;100523.28;5094793;28;20538;-64
2023/05/01 04:21:42;;;;;;;4.22;3.00;;;;;;;18.72;49.27;100519.72;5094719;28;20044;-65
2023/05/01 04:24:10;;;;;;;3.92;2.50;;;;;;;18.72;49.41;100516.13;5094867;28;20113;-65
2023/05/01 04:26:38;;;;;;;3.55;2.42;;;;;;;18.71;49.25;100522.53;5094766;28;20044;-63
2023/05/01 04:29:07;;;;;;;4.00;2.50;;;;;;;18.71;49.42;100526.09;5094561;28;20089;-64
2023/05/01 04:31:35;;;;;;;3.13;2.20;;;;;;;18.70;49.66;100529.78;5094535;28;20048;-64
2023/05/01 04:34:05;;;;;;;4.15;2.58;;;;;;;18.69;49.43;100530.78;5093653;28;20134;-64
2023/05/01 04:36:33;;;;;;;3.88;2.67;;;;;;;18.69;49.09;100529.91;5094645;28;20397;-63
2023/05/01 04:39:02;;;;;;;3.47;2.30;;;;;;;18.69;49.34;100538.88;5094320;28;20477;-64
2023/05/01 04:41:31;;;;;;;4.25;2.72;;;;;;;18.68;49.37;100537.19;5094527;28;20048;-64
2023/05/01 04:43:59;;;;;;;4.07;2.60;;;;;;;18.67;49.52;100543.56;5094258;28;20054;-64
2023/05/01 04:46:27;;;;;;;4.85;2.72;;;;;;;18.68;49.30;100544.44;5094199;28;20458;-63
2023/05/01 04:49:06;;;;;;;3.38;2.45;;;;;;;18.67;49.64;100543.56;5094029;28;20481;-65
2023/05/01 04:51:34;;;;;;;3.53;2.40;;;;;;;18.67;49.49;100543.56;5094400;28;20044;-64
2023/05/01 04:54:03;;;;;;;4.38;2.53;;;;;;;18.66;49.47;100539.16;5094090;28;20476;-64
2023/05/01 04:56:31;;;;;;;3.80;2.67;;;;;;;18.66;49.67;100544.56;5094170;28;20058;-64
2023/05/01 04:58:59;;;;;;;3.28;2.30;;;;;;;18.66;49.37;100552.69;5094106;28;20044;-65
2023/05/01 05:01:28;;;;;;;4.22;2.60;;;;;;;18.65;49.30;100550.97;5096023;28;20062;-63
2023/05/01 05:03:57;;;;;;;3.47;2.60;;;;;;;18.65;49.40;100553.66;5094081;28;20135;-63
2023/05/01 05:06:26;;;;;;;4.35;2.80;;;;;;;18.65;49.55;100550.97;5094005;28;20044;-64
2023/05/01 05:08:56;;;;;;;3.83;2.50;;;;;;;18.64;49.60;100557.34;5093877;28;20048;-64
2023/05/01 05:11:25;;;;;;;4.53;3.00;;;;;;;18.65;49.41;100558.22;5093657;28;20484;-63
2023/05/01 05:13:53;;;;;;;3.88;2.47;;;;;;;18.65;49.50;100556.38;5093616;28;20477;-63
2023/05/01 05:16:21;;;;;;;4.07;2.47;;;;;;;18.64;49.49;100562.75;5093928;28;20451;-63
2023/05/01 05:18:50;;;;;;;4.60;2.50;;;;;;;18.65;49.24;100558.22;5093779;28;20040;-65
2023/05/01 05:21:18;;;;;;;4.30;2.70;;;;;;;18.64;49.61;100557.34;5093722;28;20058;-64
2023/05/01 05:23:47;;;;;;;3.92;2.67;;;;;;;18.63;49.63;100555.63;5093513;28;20040;-64
2023/05/01 05:26:15;;;;;;;3.90;2.63;;;;;;;18.64;49.37;100562.75;5093368;28;20515;-63
2023/05/01 05:28:44;;;;;;;4.00;2.53;;;;;;;18.63;49.37;100566.44;5093579;28;20040;-65
2023/05/01 05:31:12;;;;;;;3.40;2.40;;;;;;;18.63;49.57;100566.44;5094035;28;20054;-64
2023/05/01 05:33:40;;;;;;;3.60;2.50;;;;;;;18.64;49.39;100568.13;5113846;28;20127;-64
2023/05/01 05:36:09;;;;;;;3.63;2.38;;;;;;;18.64;49.66;100567.28;5113709;28;20123;-64
2023/05/01 05:38:37;;;;;;;3.50;2.40;;;;;;;18.64;49.33;100568.13;5112590;28;20040;-64
2023/05/01 05:41:07;;;;;;;5.07;2.97;;;;;;;18.64;49.47;100572.69;5093157;28;20592;-64
2023/05/01 05:43:36;;;;;;;3.95;2.70;;;;;;;18.63;49.39;100563.72;5093273;28;20055;-64
2023/05/01 05:46:04;;;;;;;4.18;2.63;;;;;;;18.63;49.38;100566.44;5096398;28;20083;-64
2023/05/01 05:48:33;;;;;;;4.40;2.60;;;;;;;18.63;49.41;100571.84;5092961;28;20056;-64
2023/05/01 05:51:01;;;;;;;3.80;2.50;;;;;;;18.64;49.55;100570.00;5092871;28;20048;-64
2023/05/01 05:53:29;;;;;;;3.92;2.67;;;;;;;18.64;49.59;100567.28;5092809;28;20052;-64
2023/05/01 05:55:57;;;;;;;4.00;2.63;;;;;;;18.63;49.66;100569.13;5092979;28;20044;-63
2023/05/01 05:58:27;;;;;;;4.32;2.33;;;;;;;18.63;49.32;100566.44;5092964;28;20080;-64
2023/05/01 06:00:55;;;;;;;3.95;2.38;;;;;;;18.62;49.70;100570.09;5092922;28;20048;-63
2023/05/01 06:03:25;;;;;;;3.72;2.85;;;;;;;18.64;49.55;100570.00;5092800;28;20089;-63
2023/05/01 06:05:54;;;;;;;4.07;2.53;;;;;;;18.63;49.43;100570.97;5092679;28;20059;-63
2023/05/01 06:08:23;;;;;;;4.75;2.67;;;;;;;18.63;49.56;100571.84;5093017;28;20076;-71
2023/05/01 06:10:51;;;;;;;3.38;2.40;;;;;;;18.62;49.69;100572.81;5094091;28;20386;-61
2023/05/01 06:13:19;;;;;;;4.22;2.70;;;;;;;18.64;49.60;100578.09;5092921;28;20123;-64
2023/05/01 06:15:49;;;;;;;4.75;2.90;;;;;;;18.63;49.33;100570.97;5092730;28;20412;-62
2023/05/01 06:18:17;;;;;;;5.18;2.50;;;;;;;18.63;49.63;100577.25;5092392;28;20047;-61
2023/05/01 06:20:46;;;;;;;3.90;2.53;;;;;;;18.64;49.55;100570.84;5092363;28;20062;-62
2023/05/01 06:23:14;;;;;;;4.20;2.53;;;;;;;18.63;49.47;100571.84;5092680;28;20055;-62
2023/05/01 06:25:42;;;;;;;3.92;2.40;;;;;;;18.63;49.57;100582.66;5092600;28;20039;-64
2023/05/01 06:28:10;;;;;;;5.35;2.60;;;;;;;18.64;49.59;100578.09;5092419;28;20056;-60
2023/05/01 06:30:38;;;;;;;3.92;2.55;;;;;;;18.64;49.41;100581.66;5092253;28;20135;-60
2023/05/01 06:33:09;;;;;;;4.82;2.58;;;;;;;18.63;49.60;100582.66;5092164;28;20579;-66
2023/05/01 06:35:39;;;;;;;3.65;2.42;;;;;;;18.63;49.37;100574.53;5092254;28;20062;-62
2023/05/01 06:38:07;;;;;;;4.32;2.60;;;;;;;18.63;49.47;100577.25;5092247;28;20044;-64
2023/05/01 06:40:35;;;;;;;4.47;2.28;;;;;;;18.64;49.58;100584.34;5092027;28;20081;-63
2023/05/01 06:43:04;;;;;;;4.55;2.67;;;;;;;18.64;49.40;100584.34;5091861;28;20131;-62
2023/05/01 06:45:32;;;;;;;3.90;2.55;;;;;;;18.65;49.54;100587.94;5071908;28;20063;-63
2023/05/01 06:48:01;;;;;;;4.05;2.40;;;;;;;18.64;49.27;100578.94;5098752;28;20415;-63
2023/05/01 06:50:30;;;;;;;4.00;2.60;;;;;;;18.63;49.50;100582.66;5092436;28;20449;-64
2023/05/01 06:52:59;;;;;;;5.22;2.65;;;;;;;18.66;50.29;100582.41;5098787;28;20048;-61
2023/05/01 06:55:30;;;;;;;4.95;2.53;;;;;;;18.71;51.57;100580.13;5111917;28;20056;-62
2023/05/01 06:58:03;;;;;;;6.05;2.78;;;;;;;18.74;52.23;100581.72;5102853;28;20043;-61
2023/05/01 07:00:49;;;;;;;5.75;2.90;;;;;;;18.78;53.33;100581.28;5085375;28;20055;-62
2023/05/01 07:03:17;;;;;;;15.43;3.10;;;;;;;18.81;53.40;100586.41;5091865;28;20173;-67
2023/05/01 07:05:47;;;;;;;6.32;3.17;;;;;;;18.83;52.79;100580.91;5091770;28;20086;-65
2023/05/01 07:08:16;;;;;;;6.13;2.78;;;;;;;18.84;52.30;100585.31;5090821;28;20048;-64
2023/05/01 07:10:44;;;;;;;5.90;2.50;;;;;;;18.85;52.20;100590.56;5089471;28;20139;-64
2023/05/01 07:13:12;;;;;;;8.40;3.00;;;;;;;18.86;52.49;100588.72;5090005;28;20552;-64
2023/05/01 07:15:40;;;;;;;8.18;2.97;;;;;;;18.86;52.25;100583.31;5090201;28;20158;-65
2023/05/01 07:18:11;;;;;;;6.47;3.20;;;;;;;18.87;52.29;100591.28;5089950;28;20101;-66
2023/05/01 07:20:39;;;;;;;6.90;3.10;;;;;;;18.87;52.42;100588.59;5091310;28;20047;-66
2023/05/01 07:23:09;;;;;;;5.80;2.95;;;;;;;18.88;52.34;100593.00;5091351;28;20660;-66
2023/05/01 07:25:40;;;;;;;6.28;3.28;;;;;;;18.91;52.31;100585.59;5091603;28;20105;-65
2023/05/01 07:28:08;;;;;;;8.75;3.33;;;;;;;18.91;52.00;100580.19;5091745;28;20408;-65
2023/05/01 07:30:36;;;;;;;7.35;2.72;;;;;;;18.91;51.86;100585.59;5091589;28;20055;-66
2023/05/01 07:33:05;;;;;;;8.80;3.22;;;;;;;18.92;51.69;100573.81;5091651;28;20131;-66
2023/05/01 07:35:33;;;;;;;8.35;2.55;;;;;;;18.93;51.93;100589.03;5091520;28;20051;-65
2023/05/01 07:38:02;;;;;;;7.88;2.88;;;;;;;18.94;51.85;100588.03;5091294;28;20040;-65
2023/05/01 07:40:33;;;;;;;5.75;2.85;;;;;;;18.96;51.85;100588.75;5091550;28;20075;-65
2023/05/01 07:43:01;;;;;;;5.65;2.72;;;;;;;18.96;51.96;100588.75;5091699;28;20048;-65
2023/05/01 07:45:30;;;;;;;5.63;2.88;;;;;;;18.98;51.83;100586.75;5091338;28;20497;-65
2023/05/01 07:47:58;;;;;;;5.25;2.60;;;;;;;18.99;51.63;100588.47;5091327;28;20501;-65
2023/05/01 07:50:28;;;;;;;7.10;2.85;;;;;;;18.99;51.93;100583.06;5091253;28;20075;-65
2023/05/01 07:52:57;;;;;;;6.88;2.80;;;;;;;19.00;51.77;100582.06;5091329;28;20092;-65
2023/05/01 07:55:25;;;;;;;5.07;2.85;;;;;;;19.01;51.91;100584.66;5091404;28;20044;-65
2023/05/01 07:57:54;;;;;;;4.88;2.70;;;;;;;19.03;52.06;100587.22;5091319;28;20052;-65
2023/05/01 08:00:23;;;;;;;7.05;2.67;;;;;;;19.03;51.79;100589.91;5091168;28;20051;-65
2023/05/01 08:02:51;;;;;;;7.68;3.05;;;;;;;19.04;52.12;100586.22;5091250;28;20044;-64
2023/05/01 08:05:21;;;;;;;6.43;2.67;;;;;;;19.05;52.03;100583.38;5091052;28;20044;-65
2023/05/01 08:07:50;;;;;;;5.43;3.00;;;;;;;19.06;51.73;100584.22;5092485;28;20052;-67
2023/05/01 08:10:18;;;;;;;6.13;2.70;;;;;;;19.07;52.12;100583.22;5095021;28;20127;-65
2023/05/01 08:12:46;;;;;;;7.70;3.13;;;;;;;19.07;52.35;100585.94;5094742;28;20048;-64
2023/05/01 08:15:16;;;;;;;6.63;2.80;;;;;;;19.09;52.22;100594.75;5094945;28;20047;-65
2023/05/01 08:17:45;;;;;;;4.93;2.92;;;;;;;19.09;52.17;100589.34;5094861;28;20313;-65
2023/05/01 08:20:13;;;;;;;7.20;2.80;;;;;;;19.10;52.51;100591.91;5094770;28;20044;-65
2023/05/01 08:22:41;;;;;;;4.68;2.70;;;;;;;19.11;52.14;100590.09;5094800;28;20454;-66
2023/05/01 08:25:10;;;;;;;4.35;2.30;;;;;;;19.12;52.07;100583.69;5094668;28;20048;-65
2023/05/01 08:27:38;;;;;;;6.72;2.50;;;;;;;19.13;52.06;100590.78;5094655;28;20044;-66
2023/05/01 08:30:08;;;;;;;5.88;2.78;;;;;;;19.14;52.27;100581.69;5094903;28;20048;-66
2023/05/01 08:32:37;;;;;;;5.65;2.53;;;;;;;19.15;52.05;100586.09;5094711;28;20087;-66
2023/05/01 08:35:06;;;;;;;4.75;2.63;;;;;;;19.16;52.48;100585.09;5094406;28;20477;-66
2023/05/01 08:37:35;;;;;;;4.35;2.58;;;;;;;19.16;52.50;100580.53;5094460;28;20044;-66
2023/05/01 08:40:07;;;;;;;6.28;3.00;;;;;;;19.19;52.61;100581.25;5094435;28;20048;-66
2023/05/01 08:42:37;;;;;;;6.55;2.70;;;;;;;19.20;52.56;100586.50;5094251;28;20044;-66
2023/05/01 08:45:08;;;;;;;6.30;2.67;;;;;;;19.21;52.31;100582.00;5094041;28;20055;-66
2023/05/01 08:47:40;;;;;;;4.78;2.75;;;;;;;19.22;52.66;100576.44;5094070;28;20063;-66
2023/05/01 08:50:11;;;;;;;5.30;2.80;;;;;;;19.24;52.87;100582.56;5094025;28;20505;-66
2023/05/01 08:52:42;;;;;;;4.97;2.70;;;;;;;19.25;52.82;100578.00;5093888;28;20051;-66
2023/05/01 08:55:13;;;;;;;5.40;2.65;;;;;;;19.26;52.92;100575.16;5093975;28;20131;-66
2023/05/01 08:57:45;;;;;;;5.47;3.05;;;;;;;19.27;52.94;100576.84;5093995;28;20052;-66
2023/05/01 09:00:18;;;;;;;4.25;2.53;;;;;;;19.29;53.14;100574.88;5094189;28;20408;-65
2023/05/01 09:02:50;;;;;;;4.65;2.75;;;;;;;19.31;52.97;100570.19;5093930;28;20052;-65
2023/05/01 09:05:19;;;;;;;4.30;2.70;;;;;;;19.32;53.69;100574.59;5093603;28;20480;-66
2023/05/01 09:07:48;;;;;;;5.30;2.67;;;;;;;19.33;53.23;100570.03;5093933;28;20477;-65
2023/05/01 09:10:17;;;;;;;4.75;2.45;;;;;;;19.34;53.31;100564.50;5126184;27;20040;-66
2023/05/01 09:12:50;;;;;;;5.68;2.60;;;;;;;19.35;53.17;100574.31;5093802;28;20093;-65
2023/05/01 09:15:19;;;;;;;5.20;2.28;;;;;;;19.37;53.36;100566.06;5093671;28;20055;-65
2023/05/01 09:17:49;;;;;;;5.40;2.78;;;;;;;19.38;53.52;100563.19;5094042;28;20044;-65
2023/05/01 09:20:19;;;;;;;5.90;2.67;;;;;;;19.41;53.38;100559.38;5093060;28;20416;-65
2023/05/01 09:22:47;;;;;;;4.55;2.65;;;;;;;19.42;53.31;100571.91;5093409;28;20050;-66
2023/05/01 09:25:16;;;;;;;3.70;2.50;;;;;;;19.43;53.89;100562.78;5093631;28;20056;-66
2023/05/01 09:27:45;;;;;;;4.88;2.72;;;;;;;19.44;53.55;100570.75;5093454;28;20525;-65
2023/05/01 09:30:32;;;;;;;4.45;2.35;;;;;;;19.47;53.76;100563.34;5093447;28;20052;-66
2023/05/01 09:33:09;;;;;;;5.18;2.60;;;;;;;19.49;53.81;100559.50;5093105;28;20083;-66
2023/05/01 09:35:54;;;;;;;4.72;2.45;;;;;;;19.51;53.71;100562.94;5093163;28;20051;-66
2023/05/01 09:38:23;;;;;;;4.18;2.33;;;;;;;19.53;53.97;100554.69;5093337;28;20123;-66
2023/05/01 09:40:55;;;;;;;4.22;2.40;;;;;;;19.54;53.70;100561.78;5093109;28;20050;-66
2023/05/01 09:43:26;;;;;;;4.35;2.72;;;;;;;19.55;53.74;100563.50;5093527;28;20056;-66
2023/05/01 09:46:06;;;;;;;5.50;2.30;;;;;;;19.57;53.76;100556.97;5093768;28;20067;-67
2023/05/01 09:48:36;;;;;;;5.03;2.20;;;;;;;19.59;53.76;100559.53;5093117;28;20131;-66
2023/05/01 09:51:23;;;;;;;5.20;2.22;;;;;;;19.61;53.72;100562.97;5092855;28;20135;-66
2023/05/01 09:53:52;;;;;;;5.93;2.67;;;;;;;19.63;53.76;100550.16;5093111;28;20115;-66
2023/05/01 09:56:21;;;;;;;5.05;2.35;;;;;;;19.64;53.57;100547.28;5092531;28;20051;-66
2023/05/01 09:58:51;;;;;;;4.50;2.47;;;;;;;19.66;53.95;100549.84;5092992;28;20054;-66
2023/05/01 10:01:37;;;;;;;4.43;2.40;;;;;;;19.68;53.88;100548.69;5092654;28;20504;-66
2023/05/01 10:04:07;;;;;;;3.88;2.28;;;;;;;19.71;54.13;100543.03;5092750;28;20062;-66
2023/05/01 10:06:36;;;;;;;4.22;2.17;;;;;;;19.72;53.77;100539.31;5092499;28;20165;-65
2023/05/01 10:09:06;;;;;;;4.18;2.22;;;;;;;19.74;54.02;100536.47;5092991;28;20075;-67
2023/05/01 10:11:48;;;;;;;4.63;2.42;;;;;;;19.78;54.07;100537.00;5092716;28;20105;-67
2023/05/01 10:14:16;;;;;;;2.92;2.10;;;;;;;19.81;54.16;100534.03;5092546;28;20066;-66
2023/05/01 10:16:45;;;;;;;5.25;2.40;;;;;;;19.83;54.00;100538.31;5092403;28;20438;-66
2023/05/01 10:19:17;;;;;;;4.15;2.50;;;;;;;19.86;53.75;100539.84;5092247;28;20123;-66
2023/05/01 10:21:45;;;;;;;4.07;2.30;;;;;;;19.88;53.70;100529.72;5092687;28;20048;-67
2023/05/01 10:24:15;;;;;;;4.10;2.47;;;;;;;19.91;54.08;100524.06;5092547;28;20082;-67
2023/05/01 10:26:44;;;;;;;5.57;2.55;;;;;;;19.93;53.53;100514.78;5092317;28;20048;-66
2023/05/01 10:29:13;;;;;;;3.92;2.33;;;;;;;19.96;53.88;100514.47;5092287;28;20451;-67
2023/05/01 10:31:41;;;;;;;3.83;2.17;;;;;;;20.00;53.46;100518.63;5091442;28;20051;-66
2023/05/01 10:34:12;;;;;;;4.97;2.40;;;;;;;20.04;53.54;100515.59;5091926;28;20381;-67
2023/05/01 10:36:47;;;;;;;6.15;2.38;;;;;;;20.08;53.67;100511.63;5092041;28;20044;-66
2023/05/01 10:39:30;;;;;;;4.90;2.42;;;;;;;20.12;53.76;100502.19;5092179;28;20481;-66
2023/05/01 10:42:09;;;;;;;5.40;2.40;;;;;;;20.15;53.46;100499.16;5091881;28;20094;-67
2023/05/01 10:44:38;;;;;;;4.22;2.33;;;;;;;20.20;53.34;100505.00;5091882;28;20499;-66
2023/05/01 10:47:47;;;;;;;4.68;2.50;;;;;;;20.23;53.45;100492.00;5091809;28;20047;-67
2023/05/01 10:50:16;;;;;;;4.03;2.45;;;;;;;20.27;53.50;100489.88;5092027;28;20046;-66
2023/05/01 10:53:19;;;;;;;4.47;2.05;;;;;;;20.30;53.36;100490.44;5091821;28;20048;-67
2023/05/01 10:55:49;;;;;;;3.45;2.20;;;;;;;20.35;53.62;100481.84;5092051;28;20048;-66
2023/05/01 10:58:55;;;;;;;3.67;2.17;;;;;;;20.38;53.21;100476.16;5091933;28;20089;-66
2023/05/01 11:01:31;;;;;;;5.13;2.47;;;;;;;20.42;53.21;100482.97;5091815;28;20048;-66
2023/05/01 11:04:02;;;;;;;3.50;2.20;;;;;;;20.46;53.54;100483.53;5091855;28;20044;-66
2023/05/01 11:06:31;;;;;;;5.07;2.30;;;;;;;20.49;53.26;100478.69;5091922;28;20087;-66
2023/05/01 11:09:03;;;;;;;3.67;2.20;;;;;;;20.52;53.58;100483.78;5092821;28;20052;-67
2023/05/01 11:11:50;;;;;;;3.97;2.25;;;;;;;20.56;53.29;100485.22;5091596;28;20493;-66
2023/05/01 11:14:18;;;;;;;4.97;2.05;;;;;;;20.60;53.10;100479.47;5091619;28;20059;-66
2023/05/01 11:16:47;;;;;;;3.65;2.13;;;;;;;20.64;53.13;100480.88;5091852;28;20052;-66
2023/05/01 11:19:49;;;;;;;3.83;2.20;;;;;;;20.68;53.25;100474.16;5091697;28;20105;-66
2023/05/01 11:22:18;;;;;;;3.90;2.25;;;;;;;20.73;53.00;100474.53;5088451;28;20040;-66
2023/05/01 11:24:49;;;;;;;2.47;1.92;;;;;;;20.77;53.00;100470.53;5091565;28;20489;-66
2023/05/01 11:27:17;;;;;;;5.07;2.20;;;;;;;20.81;52.82;100466.50;5091838;28;20044;-66
2023/05/01 11:29:48;;;;;;;4.50;2.33;;;;;;;20.85;52.88;100473.34;5091541;28;20501;-66
2023/05/01 11:32:19;;;;;;;4.32;2.20;;;;;;;20.87;52.51;100465.91;5091376;28;20070;-66
2023/05/01 11:34:50;;;;;;;4.55;2.33;;;;;;;20.90;52.60;100460.16;5091521;28;20048;-66
2023/05/01 11:37:18;;;;;;;3.63;2.03;;;;;;;20.93;52.59;100454.44;5091586;28;20044;-66
2023/05/01 11:39:52;;;;;;;3.45;2.00;;;;;;;20.97;52.44;100455.00;5091493;28;20135;-66